sensor_id;sensor_type;location;lat;lon;timestamp;pressure;altitude;pressure_sealevel;temperature;humidity
30724;BME280;17473;52.286;20.930;2023-04-30T00:01:13;100004.97;;;14.19;82.16
30724;BME280;17473;52.286;20.930;2023-04-30T00:03:39;100010.25;;;14.16;83.37
30724;BME280;17473;52.286;20.930;2023-04-30T00:06:07;100011.09;;;14.13;82.94
30724;BME280;17473;52.286;20.930;2023-04-30T00:08:34;100006.66;;;14.12;83.72
30724;BME280;17473;52.286;20.930;2023-04-30T00:11:01;100014.63;;;14.14;83.45
30724;BME280;17473;52.286;20.930;2023-04-30T00:13:28;100009.31;;;14.12;84.16
30724;BME280;17473;52.286;20.930;2023-04-30T00:15:55;100009.19;;;14.04;85.21
30724;BME280;17473;52.286;20.930;2023-04-30T00:18:22;100006.53;;;14.03;84.46
30724;BME280;17473;52.286;20.930;2023-04-30T00:20:49;100012.81;;;14.09;84.04
30724;BME280;17473;52.286;20.930;2023-04-30T00:23:18;100015.50;;;14.13;84.20
30724;BME280;17473;52.286;20.930;2023-04-30T00:25:45;100018.00;;;14.02;85.25
30724;BME280;17473;52.286;20.930;2023-04-30T00:28:12;100016.47;;;14.16;83.90
30724;BME280;17473;52.286;20.930;2023-04-30T00:30:39;100011.84;;;14.03;84.63
30724;BME280;17473;52.286;20.930;2023-04-30T00:33:06;100018.81;;;13.96;85.10
30724;BME280;17473;52.286;20.930;2023-04-30T00:35:33;100025.06;;;14.00;85.09
30724;BME280;17473;52.286;20.930;2023-04-30T00:38:00;100022.47;;;14.04;84.54
30724;BME280;17473;52.286;20.930;2023-04-30T00:40:27;100029.50;;;14.01;85.24
30724;BME280;17473;52.286;20.930;2023-04-30T00:42:54;100018.69;;;13.87;85.99
30724;BME280;17473;52.286;20.930;2023-04-30T00:45:22;100017.69;;;13.78;86.29
30724;BME280;17473;52.286;20.930;2023-04-30T00:47:49;100021.25;;;13.82;86.01
30724;BME280;17473;52.286;20.930;2023-04-30T00:50:16;100029.06;;;13.70;86.91
30724;BME280;17473;52.286;20.930;2023-04-30T00:52:44;100025.69;;;13.82;85.97
30724;BME280;17473;52.286;20.930;2023-04-30T00:55:12;100028.34;;;13.80;86.29
30724;BME280;17473;52.286;20.930;2023-04-30T00:57:39;100023.13;;;13.88;85.79
30724;BME280;17473;52.286;20.930;2023-04-30T01:00:08;100025.75;;;13.85;85.99
30724;BME280;17473;52.286;20.930;2023-04-30T01:02:37;100031.81;;;13.77;86.28
30724;BME280;17473;52.286;20.930;2023-04-30T01:05:05;100030.94;;;13.77;86.51
30724;BME280;17473;52.286;20.930;2023-04-30T01:07:35;100030.00;;;13.75;85.86
30724;BME280;17473;52.286;20.930;2023-04-30T01:10:05;100021.09;;;13.70;87.06
30724;BME280;17473;52.286;20.930;2023-04-30T01:12:43;100035.16;;;13.63;87.42
30724;BME280;17473;52.286;20.930;2023-04-30T01:15:28;100022.69;;;13.60;87.34
30724;BME280;17473;52.286;20.930;2023-04-30T01:18:12;100029.69;;;13.53;88.25
30724;BME280;17473;52.286;20.930;2023-04-30T01:20:53;100032.50;;;13.63;88.00
30724;BME280;17473;52.286;20.930;2023-04-30T01:24:05;100032.53;;;13.67;87.82
30724;BME280;17473;52.286;20.930;2023-04-30T01:27:13;100045.59;;;13.53;88.50
30724;BME280;17473;52.286;20.930;2023-04-30T01:29:42;100037.03;;;13.71;87.59
30724;BME280;17473;52.286;20.930;2023-04-30T01:32:10;100038.53;;;13.54;88.42
30724;BME280;17473;52.286;20.930;2023-04-30T01:34:37;100038.59;;;13.57;88.45
30724;BME280;17473;52.286;20.930;2023-04-30T01:37:39;100041.25;;;13.57;88.12
30724;BME280;17473;52.286;20.930;2023-04-30T01:43:38;100049.94;;;13.50;88.73
30724;BME280;17473;52.286;20.930;2023-04-30T01:46:30;100043.75;;;13.48;88.66
30724;BME280;17473;52.286;20.930;2023-04-30T01:52:18;100056.91;;;13.43;89.25
30724;BME280;17473;52.286;20.930;2023-04-30T01:55:00;100061.19;;;13.38;89.65
30724;BME280;17473;52.286;20.930;2023-04-30T01:57:42;100057.00;;;13.49;89.12
30724;BME280;17473;52.286;20.930;2023-04-30T02:00:13;100057.09;;;13.54;88.88
30724;BME280;17473;52.286;20.930;2023-04-30T02:02:40;100058.94;;;13.58;88.55
30724;BME280;17473;52.286;20.930;2023-04-30T02:05:08;100057.00;;;13.49;89.08
30724;BME280;17473;52.286;20.930;2023-04-30T02:07:47;100052.41;;;13.39;89.92
30724;BME280;17473;52.286;20.930;2023-04-30T02:10:17;100058.88;;;13.53;89.43
30724;BME280;17473;52.286;20.930;2023-04-30T02:12:44;100051.56;;;13.40;90.00
30724;BME280;17473;52.286;20.930;2023-04-30T02:15:12;100065.63;;;13.37;90.32
30724;BME280;17473;52.286;20.930;2023-04-30T02:17:39;100066.69;;;13.45;90.14
30724;BME280;17473;52.286;20.930;2023-04-30T02:20:07;100058.72;;;13.45;90.05
30724;BME280;17473;52.286;20.930;2023-04-30T02:22:35;100069.41;;;13.49;90.01
30724;BME280;17473;52.286;20.930;2023-04-30T02:25:03;100073.69;;;13.42;90.57
30724;BME280;17473;52.286;20.930;2023-04-30T02:27:32;100064.13;;;13.52;90.05
30724;BME280;17473;52.286;20.930;2023-04-30T02:30:00;100072.16;;;13.55;89.52
30724;BME280;17473;52.286;20.930;2023-04-30T02:32:27;100081.66;;;13.43;89.99
30724;BME280;17473;52.286;20.930;2023-04-30T02:34:54;100080.50;;;13.29;91.00
30724;BME280;17473;52.286;20.930;2023-04-30T02:37:21;100088.53;;;13.34;90.89
30724;BME280;17473;52.286;20.930;2023-04-30T02:39:48;100092.91;;;13.30;91.12
30724;BME280;17473;52.286;20.930;2023-04-30T02:42:16;100096.53;;;13.37;90.97
30724;BME280;17473;52.286;20.930;2023-04-30T02:44:43;100099.19;;;13.37;90.26
30724;BME280;17473;52.286;20.930;2023-04-30T02:47:10;100095.38;;;13.21;90.85
30724;BME280;17473;52.286;20.930;2023-04-30T02:49:37;100099.78;;;13.20;90.24
30724;BME280;17473;52.286;20.930;2023-04-30T02:52:04;100104.19;;;13.20;89.27
30724;BME280;17473;52.286;20.930;2023-04-30T02:54:32;100115.22;;;12.95;88.19
30724;BME280;17473;52.286;20.930;2023-04-30T02:56:59;100116.91;;;12.90;87.36
30724;BME280;17473;52.286;20.930;2023-04-30T02:59:27;100130.81;;;12.80;85.99
30724;BME280;17473;52.286;20.930;2023-04-30T03:01:54;100127.22;;;12.76;86.84
30724;BME280;17473;52.286;20.930;2023-04-30T03:04:21;100126.06;;;12.63;87.21
30724;BME280;17473;52.286;20.930;2023-04-30T03:06:48;100125.38;;;12.74;86.71
30724;BME280;17473;52.286;20.930;2023-04-30T03:09:15;100127.59;;;12.52;88.10
30724;BME280;17473;52.286;20.930;2023-04-30T03:11:42;100135.06;;;12.72;87.39
30724;BME280;17473;52.286;20.930;2023-04-30T03:14:09;100128.50;;;12.54;87.01
30724;BME280;17473;52.286;20.930;2023-04-30T03:16:36;100136.69;;;12.66;86.73
30724;BME280;17473;52.286;20.930;2023-04-30T03:19:03;100140.38;;;12.72;86.76
30724;BME280;17473;52.286;20.930;2023-04-30T03:21:30;100135.81;;;12.66;87.06
30724;BME280;17473;52.286;20.930;2023-04-30T03:23:58;100143.38;;;12.47;87.58
30724;BME280;17473;52.286;20.930;2023-04-30T03:26:25;100144.59;;;12.63;87.40
30724;BME280;17473;52.286;20.930;2023-04-30T03:28:53;100144.16;;;12.84;86.77
30724;BME280;17473;52.286;20.930;2023-04-30T03:31:21;100151.84;;;12.74;86.86
30724;BME280;17473;52.286;20.930;2023-04-30T03:33:48;100148.78;;;12.53;87.75
30724;BME280;17473;52.286;20.930;2023-04-30T03:36:15;100161.03;;;12.10;89.13
30724;BME280;17473;52.286;20.930;2023-04-30T03:38:42;100172.34;;;12.03;88.30
30724;BME280;17473;52.286;20.930;2023-04-30T03:41:09;100180.00;;;11.92;87.97
30724;BME280;17473;52.286;20.930;2023-04-30T03:43:37;100182.69;;;11.95;87.26
30724;BME280;17473;52.286;20.930;2023-04-30T03:46:04;100184.47;;;11.95;86.92
30724;BME280;17473;52.286;20.930;2023-04-30T03:48:31;100189.19;;;12.07;83.50
30724;BME280;17473;52.286;20.930;2023-04-30T03:50:58;100191.25;;;11.85;82.80
30724;BME280;17473;52.286;20.930;2023-04-30T03:53:25;100203.34;;;11.75;80.89
30724;BME280;17473;52.286;20.930;2023-04-30T03:55:53;100202.38;;;11.71;76.30
30724;BME280;17473;52.286;20.930;2023-04-30T03:58:21;100199.38;;;11.57;75.56
30724;BME280;17473;52.286;20.930;2023-04-30T04:00:48;100200.97;;;11.52;74.48
30724;BME280;17473;52.286;20.930;2023-04-30T04:03:15;100216.91;;;11.54;74.59
30724;BME280;17473;52.286;20.930;2023-04-30T04:05:43;100224.59;;;11.45;74.93
30724;BME280;17473;52.286;20.930;2023-04-30T04:08:10;100216.56;;;11.41;74.80
30724;BME280;17473;52.286;20.930;2023-04-30T04:10:38;100242.78;;;11.34;75.19
30724;BME280;17473;52.286;20.930;2023-04-30T04:13:06;100237.69;;;11.41;75.18
30724;BME280;17473;52.286;20.930;2023-04-30T04:15:33;100241.53;;;11.51;75.09
30724;BME280;17473;52.286;20.930;2023-04-30T04:18:00;100246.72;;;11.48;75.17
30724;BME280;17473;52.286;20.930;2023-04-30T04:20:28;100258.78;;;11.38;75.00
30724;BME280;17473;52.286;20.930;2023-04-30T04:22:55;100259.91;;;11.47;74.32
30724;BME280;17473;52.286;20.930;2023-04-30T04:25:23;100265.81;;;11.38;75.03
30724;BME280;17473;52.286;20.930;2023-04-30T04:27:51;100259.31;;;11.26;75.69
30724;BME280;17473;52.286;20.930;2023-04-30T04:30:18;100263.31;;;11.44;74.85
30724;BME280;17473;52.286;20.930;2023-04-30T04:32:45;100262.47;;;11.45;74.01
30724;BME280;17473;52.286;20.930;2023-04-30T04:35:15;100266.94;;;11.48;73.14
30724;BME280;17473;52.286;20.930;2023-04-30T04:37:42;100273.03;;;11.43;73.42
30724;BME280;17473;52.286;20.930;2023-04-30T04:40:09;100276.75;;;11.50;74.02
30724;BME280;17473;52.286;20.930;2023-04-30T04:42:38;100279.38;;;11.50;73.79
30724;BME280;17473;52.286;20.930;2023-04-30T04:45:07;100286.34;;;11.80;72.47
30724;BME280;17473;52.286;20.930;2023-04-30T04:47:34;100286.66;;;11.59;72.66
30724;BME280;17473;52.286;20.930;2023-04-30T04:50:02;100291.66;;;11.48;72.66
30724;BME280;17473;52.286;20.930;2023-04-30T04:52:29;100297.94;;;11.52;72.81
30724;BME280;17473;52.286;20.930;2023-04-30T04:54:56;100298.81;;;11.52;73.07
30724;BME280;17473;52.286;20.930;2023-04-30T04:57:23;100302.88;;;11.71;73.25
30724;BME280;17473;52.286;20.930;2023-04-30T04:59:50;100302.63;;;11.62;73.55
30724;BME280;17473;52.286;20.930;2023-04-30T05:02:17;100309.84;;;11.68;73.82
30724;BME280;17473;52.286;20.930;2023-04-30T05:04:45;100308.34;;;11.78;73.27
30724;BME280;17473;52.286;20.930;2023-04-30T05:07:13;100309.78;;;11.66;73.23
30724;BME280;17473;52.286;20.930;2023-04-30T05:09:40;100318.94;;;11.79;72.62
30724;BME280;17473;52.286;20.930;2023-04-30T05:12:07;100314.41;;;11.73;72.35
30724;BME280;17473;52.286;20.930;2023-04-30T05:14:34;100323.00;;;11.66;72.93
30724;BME280;17473;52.286;20.930;2023-04-30T05:17:01;100321.31;;;11.68;72.74
30724;BME280;17473;52.286;20.930;2023-04-30T05:19:28;100331.03;;;11.69;72.91
30724;BME280;17473;52.286;20.930;2023-04-30T05:21:55;100338.25;;;11.75;72.84
30724;BME280;17473;52.286;20.930;2023-04-30T05:24:23;100345.47;;;11.81;72.43
30724;BME280;17473;52.286;20.930;2023-04-30T05:26:50;100343.03;;;11.88;72.08
30724;BME280;17473;52.286;20.930;2023-04-30T05:29:17;100353.09;;;12.00;72.30
30724;BME280;17473;52.286;20.930;2023-04-30T05:31:44;100354.88;;;12.01;72.27
30724;BME280;17473;52.286;20.930;2023-04-30T05:34:11;100345.59;;;12.17;71.80
30724;BME280;17473;52.286;20.930;2023-04-30T05:36:38;100352.44;;;12.43;71.55
30724;BME280;17473;52.286;20.930;2023-04-30T05:39:05;100356.09;;;12.48;70.96
30724;BME280;17473;52.286;20.930;2023-04-30T05:41:32;100357.91;;;12.49;71.02
30724;BME280;17473;52.286;20.930;2023-04-30T05:43:59;100364.84;;;12.44;70.91
30724;BME280;17473;52.286;20.930;2023-04-30T05:46:28;100374.34;;;12.35;71.60
30724;BME280;17473;52.286;20.930;2023-04-30T05:48:55;100375.56;;;12.50;71.40
30724;BME280;17473;52.286;20.930;2023-04-30T05:51:22;100380.34;;;12.63;71.03
30724;BME280;17473;52.286;20.930;2023-04-30T05:53:49;100375.78;;;12.58;71.00
30724;BME280;17473;52.286;20.930;2023-04-30T05:56:17;100376.28;;;12.78;70.46
30724;BME280;17473;52.286;20.930;2023-04-30T05:58:44;100373.06;;;12.56;71.04
30724;BME280;17473;52.286;20.930;2023-04-30T06:01:11;100371.25;;;12.53;70.79
30724;BME280;17473;52.286;20.930;2023-04-30T06:03:38;100383.41;;;12.80;69.79
30724;BME280;17473;52.286;20.930;2023-04-30T06:06:05;100382.84;;;13.32;68.10
30724;BME280;17473;52.286;20.930;2023-04-30T06:08:32;100385.78;;;13.86;65.42
30724;BME280;17473;52.286;20.930;2023-04-30T06:10:59;100380.13;;;18.06;52.97
30724;BME280;17473;52.286;20.930;2023-04-30T06:13:30;100372.25;;;22.43;41.44
30724;BME280;17473;52.286;20.930;2023-04-30T06:15:58;100372.47;;;24.62;36.36
30724;BME280;17473;52.286;20.930;2023-04-30T06:18:25;100377.84;;;24.62;36.03
30724;BME280;17473;52.286;20.930;2023-04-30T06:20:52;100383.59;;;23.17;37.24
30724;BME280;17473;52.286;20.930;2023-04-30T06:23:19;100382.38;;;20.51;41.65
30724;BME280;17473;52.286;20.930;2023-04-30T06:25:46;100398.94;;;19.41;44.89
30724;BME280;17473;52.286;20.930;2023-04-30T06:28:13;100390.38;;;22.28;40.21
30724;BME280;17473;52.286;20.930;2023-04-30T06:30:40;100395.88;;;22.22;40.40
30724;BME280;17473;52.286;20.930;2023-04-30T06:33:07;100386.69;;;26.63;33.17
30724;BME280;17473;52.286;20.930;2023-04-30T06:35:34;100390.66;;;29.18;29.60
30724;BME280;17473;52.286;20.930;2023-04-30T06:38:01;100392.22;;;28.37;29.69
30724;BME280;17473;52.286;20.930;2023-04-30T06:40:28;100401.41;;;27.34;30.54
30724;BME280;17473;52.286;20.930;2023-04-30T06:42:55;100399.38;;;27.16;29.80
30724;BME280;17473;52.286;20.930;2023-04-30T06:45:22;100393.97;;;29.47;26.80
30724;BME280;17473;52.286;20.930;2023-04-30T06:47:49;100397.34;;;28.21;27.74
30724;BME280;17473;52.286;20.930;2023-04-30T06:50:18;100398.41;;;27.17;28.62
30724;BME280;17473;52.286;20.930;2023-04-30T06:52:47;100406.19;;;25.18;29.89
30724;BME280;17473;52.286;20.930;2023-04-30T06:55:14;100398.28;;;27.72;25.75
30724;BME280;17473;52.286;20.930;2023-04-30T06:57:41;100403.56;;;30.34;24.13
30724;BME280;17473;52.286;20.930;2023-04-30T07:00:10;100402.38;;;30.96;22.50
30724;BME280;17473;52.286;20.930;2023-04-30T07:02:38;100402.00;;;30.48;22.18
30724;BME280;17473;52.286;20.930;2023-04-30T07:05:05;100400.97;;;31.41;21.85
30724;BME280;17473;52.286;20.930;2023-04-30T07:07:32;100408.44;;;31.89;21.45
30724;BME280;17473;52.286;20.930;2023-04-30T07:10:00;100408.16;;;31.25;21.95
30724;BME280;17473;52.286;20.930;2023-04-30T07:12:27;100393.75;;;31.22;21.59
30724;BME280;17473;52.286;20.930;2023-04-30T07:14:54;100410.22;;;27.43;26.02
30724;BME280;17473;52.286;20.930;2023-04-30T07:17:21;100420.94;;;24.67;29.01
30724;BME280;17473;52.286;20.930;2023-04-30T07:19:49;100420.19;;;23.77;29.04
30724;BME280;17473;52.286;20.930;2023-04-30T07:22:16;100417.81;;;25.88;26.39
30724;BME280;17473;52.286;20.930;2023-04-30T07:24:43;100418.56;;;27.86;24.75
30724;BME280;17473;52.286;20.930;2023-04-30T07:27:10;100416.13;;;28.73;23.67
30724;BME280;17473;52.286;20.930;2023-04-30T07:29:37;100419.69;;;29.18;22.40
30724;BME280;17473;52.286;20.930;2023-04-30T07:32:04;100415.09;;;29.41;22.71
30724;BME280;17473;52.286;20.930;2023-04-30T07:34:31;100425.69;;;28.37;23.40
30724;BME280;17473;52.286;20.930;2023-04-30T07:36:58;100422.22;;;28.10;23.52
30724;BME280;17473;52.286;20.930;2023-04-30T07:39:27;100429.13;;;27.70;23.49
30724;BME280;17473;52.286;20.930;2023-04-30T07:41:54;100420.50;;;27.82;22.66
30724;BME280;17473;52.286;20.930;2023-04-30T07:44:21;100426.06;;;28.50;23.00
30724;BME280;17473;52.286;20.930;2023-04-30T07:46:48;100426.84;;;28.06;23.39
30724;BME280;17473;52.286;20.930;2023-04-30T07:49:15;100438.78;;;28.26;23.38
30724;BME280;17473;52.286;20.930;2023-04-30T07:51:42;100440.75;;;28.91;22.44
30724;BME280;17473;52.286;20.930;2023-04-30T07:54:09;100441.13;;;29.67;21.43
30724;BME280;17473;52.286;20.930;2023-04-30T07:56:36;100440.28;;;29.01;21.31
30724;BME280;17473;52.286;20.930;2023-04-30T07:59:03;100451.69;;;29.32;21.11
30724;BME280;17473;52.286;20.930;2023-04-30T08:01:31;100443.44;;;28.68;22.51
30724;BME280;17473;52.286;20.930;2023-04-30T08:03:58;100455.91;;;27.79;23.87
30724;BME280;17473;52.286;20.930;2023-04-30T08:06:25;100455.78;;;28.07;23.25
30724;BME280;17473;52.286;20.930;2023-04-30T08:08:56;100451.22;;;28.08;22.95
30724;BME280;17473;52.286;20.930;2023-04-30T08:11:23;100462.25;;;26.99;23.75
30724;BME280;17473;52.286;20.930;2023-04-30T08:13:50;100464.72;;;27.33;23.54
30724;BME280;17473;52.286;20.930;2023-04-30T08:16:17;100465.34;;;27.15;23.61
30724;BME280;17473;52.286;20.930;2023-04-30T08:18:44;100463.75;;;27.34;23.84
30724;BME280;17473;52.286;20.930;2023-04-30T08:21:12;100464.69;;;27.86;22.61
30724;BME280;17473;52.286;20.930;2023-04-30T08:23:40;100463.34;;;27.47;22.41
30724;BME280;17473;52.286;20.930;2023-04-30T08:26:07;100472.00;;;27.05;22.12
30724;BME280;17473;52.286;20.930;2023-04-30T08:28:34;100467.38;;;27.08;22.06
30724;BME280;17473;52.286;20.930;2023-04-30T08:31:01;100464.19;;;26.95;22.16
30724;BME280;17473;52.286;20.930;2023-04-30T08:33:28;100460.19;;;26.19;23.35
30724;BME280;17473;52.286;20.930;2023-04-30T08:35:55;100470.72;;;25.98;23.03
30724;BME280;17473;52.286;20.930;2023-04-30T08:38:22;100480.06;;;26.18;23.25
30724;BME280;17473;52.286;20.930;2023-04-30T08:41:03;100467.75;;;26.39;22.83
30724;BME280;17473;52.286;20.930;2023-04-30T08:43:34;100481.25;;;25.41;23.39
30724;BME280;17473;52.286;20.930;2023-04-30T08:46:01;100483.34;;;25.65;22.92
30724;BME280;17473;52.286;20.930;2023-04-30T08:48:30;100486.41;;;25.14;23.21
30724;BME280;17473;52.286;20.930;2023-04-30T08:51:03;100480.88;;;25.88;23.22
30724;BME280;17473;52.286;20.930;2023-04-30T08:53:34;100483.97;;;25.76;21.61
30724;BME280;17473;52.286;20.930;2023-04-30T08:56:03;100485.00;;;24.59;21.56
30724;BME280;17473;52.286;20.930;2023-04-30T08:58:30;100491.25;;;24.61;21.76
30724;BME280;17473;52.286;20.930;2023-04-30T09:00:58;100491.31;;;24.58;21.85
30724;BME280;17473;52.286;20.930;2023-04-30T09:03:25;100487.84;;;24.52;21.67
30724;BME280;17473;52.286;20.930;2023-04-30T09:05:54;100505.75;;;23.66;21.95
30724;BME280;17473;52.286;20.930;2023-04-30T09:08:44;100497.94;;;23.50;22.15
30724;BME280;17473;52.286;20.930;2023-04-30T09:11:28;100504.34;;;24.38;21.87
30724;BME280;17473;52.286;20.930;2023-04-30T09:14:00;100501.28;;;24.56;22.04
30724;BME280;17473;52.286;20.930;2023-04-30T09:16:43;100506.50;;;24.63;22.05
30724;BME280;17473;52.286;20.930;2023-04-30T09:19:25;100508.28;;;24.64;22.24
30724;BME280;17473;52.286;20.930;2023-04-30T09:21:54;100513.88;;;24.96;22.19
30724;BME280;17473;52.286;20.930;2023-04-30T09:24:23;100507.88;;;25.57;22.04
30724;BME280;17473;52.286;20.930;2023-04-30T09:26:50;100521.06;;;25.69;21.35
30724;BME280;17473;52.286;20.930;2023-04-30T09:29:18;100515.75;;;25.99;20.92
30724;BME280;17473;52.286;20.930;2023-04-30T09:31:46;100517.75;;;25.22;21.48
30724;BME280;17473;52.286;20.930;2023-04-30T09:34:13;100519.22;;;24.97;21.31
30724;BME280;17473;52.286;20.930;2023-04-30T09:36:54;100520.88;;;25.42;21.96
30724;BME280;17473;52.286;20.930;2023-04-30T09:39:22;100519.22;;;24.99;22.21
30724;BME280;17473;52.286;20.930;2023-04-30T09:41:50;100517.84;;;23.90;22.34
30724;BME280;17473;52.286;20.930;2023-04-30T09:44:37;100521.38;;;23.97;22.62
30724;BME280;17473;52.286;20.930;2023-04-30T09:47:09;100523.28;;;23.88;23.56
30724;BME280;17473;52.286;20.930;2023-04-30T09:49:39;100517.09;;;24.30;22.92
30724;BME280;17473;52.286;20.930;2023-04-30T09:52:07;100512.56;;;24.75;22.59
30724;BME280;17473;52.286;20.930;2023-04-30T09:54:34;100520.66;;;24.75;22.47
30724;BME280;17473;52.286;20.930;2023-04-30T09:57:02;100514.06;;;24.47;22.64
30724;BME280;17473;52.286;20.930;2023-04-30T09:59:34;100508.44;;;24.16;22.37
30724;BME280;17473;52.286;20.930;2023-04-30T10:02:05;100510.94;;;24.23;22.79
30724;BME280;17473;52.286;20.930;2023-04-30T10:04:43;100499.75;;;24.42;22.28
30724;BME280;17473;52.286;20.930;2023-04-30T10:07:16;100512.78;;;24.23;22.57
30724;BME280;17473;52.286;20.930;2023-04-30T10:09:58;100510.44;;;24.04;22.55
30724;BME280;17473;52.286;20.930;2023-04-30T10:12:56;100507.88;;;23.47;23.16
30724;BME280;17473;52.286;20.930;2023-04-30T10:15:38;100500.63;;;23.52;23.80
30724;BME280;17473;52.286;20.930;2023-04-30T10:18:25;100510.69;;;23.40;24.18
30724;BME280;17473;52.286;20.930;2023-04-30T10:20:55;100513.50;;;23.34;23.79
30724;BME280;17473;52.286;20.930;2023-04-30T10:23:23;100497.56;;;23.19;24.06
30724;BME280;17473;52.286;20.930;2023-04-30T10:25:50;100503.69;;;22.72;23.35
30724;BME280;17473;52.286;20.930;2023-04-30T10:28:18;100506.59;;;23.13;23.57
30724;BME280;17473;52.286;20.930;2023-04-30T10:30:46;100515.56;;;23.17;23.39
30724;BME280;17473;52.286;20.930;2023-04-30T10:33:34;100507.84;;;22.92;23.29
30724;BME280;17473;52.286;20.930;2023-04-30T10:36:06;100513.63;;;22.65;23.05
30724;BME280;17473;52.286;20.930;2023-04-30T10:38:37;100521.31;;;22.25;23.58
30724;BME280;17473;52.286;20.930;2023-04-30T10:41:06;100510.84;;;22.72;23.68
30724;BME280;17473;52.286;20.930;2023-04-30T10:43:35;100507.53;;;22.51;23.33
30724;BME280;17473;52.286;20.930;2023-04-30T10:46:02;100507.44;;;21.84;24.17
30724;BME280;17473;52.286;20.930;2023-04-30T10:48:33;100511.34;;;22.33;23.65
30724;BME280;17473;52.286;20.930;2023-04-30T10:51:01;100511.44;;;22.24;23.76
30724;BME280;17473;52.286;20.930;2023-04-30T10:53:31;100511.63;;;22.80;25.42
30724;BME280;17473;52.286;20.930;2023-04-30T10:56:02;100512.97;;;22.46;23.54
30724;BME280;17473;52.286;20.930;2023-04-30T10:58:39;100511.13;;;22.51;23.36
30724;BME280;17473;52.286;20.930;2023-04-30T11:01:12;100511.25;;;22.42;22.55
30724;BME280;17473;52.286;20.930;2023-04-30T11:04:28;100511.53;;;22.16;22.91
30724;BME280;17473;52.286;20.930;2023-04-30T11:09:42;100519.38;;;21.47;23.57
30724;BME280;17473;52.286;20.930;2023-04-30T11:12:18;100523.84;;;21.48;24.12
30724;BME280;17473;52.286;20.930;2023-04-30T11:14:46;100510.41;;;21.51;24.63
30724;BME280;17473;52.286;20.930;2023-04-30T11:17:23;100523.22;;;21.18;24.60
30724;BME280;17473;52.286;20.930;2023-04-30T11:19:52;100529.66;;;20.97;25.01
30724;BME280;17473;52.286;20.930;2023-04-30T11:22:23;100531.75;;;20.28;25.33
30724;BME280;17473;52.286;20.930;2023-04-30T11:25:07;100530.66;;;20.74;25.25
30724;BME280;17473;52.286;20.930;2023-04-30T11:27:39;100531.75;;;20.30;26.21
30724;BME280;17473;52.286;20.930;2023-04-30T11:30:17;100543.47;;;19.92;25.47
30724;BME280;17473;52.286;20.930;2023-04-30T11:32:46;100535.44;;;19.76;26.63
30724;BME280;17473;52.286;20.930;2023-04-30T11:35:17;100526.56;;;19.52;26.92
30724;BME280;17473;52.286;20.930;2023-04-30T11:37:47;100541.72;;;19.64;26.87
30724;BME280;17473;52.286;20.930;2023-04-30T11:40:14;100536.38;;;19.58;27.37
30724;BME280;17473;52.286;20.930;2023-04-30T11:42:43;100532.75;;;19.71;26.73
30724;BME280;17473;52.286;20.930;2023-04-30T11:45:15;100539.91;;;19.65;27.23
30724;BME280;17473;52.286;20.930;2023-04-30T11:47:52;100550.63;;;19.82;27.55
30724;BME280;17473;52.286;20.930;2023-04-30T11:50:27;100543.44;;;20.12;27.42
30724;BME280;17473;52.286;20.930;2023-04-30T11:52:59;100547.03;;;19.86;26.90
30724;BME280;17473;52.286;20.930;2023-04-30T11:55:29;100541.69;;;19.61;27.47
30724;BME280;17473;52.286;20.930;2023-04-30T11:57:56;100536.31;;;19.83;28.33
30724;BME280;17473;52.286;20.930;2023-04-30T12:00:28;100536.34;;;19.60;26.97
30724;BME280;17473;52.286;20.930;2023-04-30T12:02:58;100556.88;;;19.64;27.73
30724;BME280;17473;52.286;20.930;2023-04-30T12:05:27;100551.53;;;19.62;27.35
30724;BME280;17473;52.286;20.930;2023-04-30T12:07:56;100551.50;;;20.04;27.18
30724;BME280;17473;52.286;20.930;2023-04-30T12:10:25;100547.09;;;19.58;26.97
30724;BME280;17473;52.286;20.930;2023-04-30T12:12:53;100544.38;;;19.43;26.69
30724;BME280;17473;52.286;20.930;2023-04-30T12:15:23;100553.31;;;19.49;26.43
30724;BME280;17473;52.286;20.930;2023-04-30T12:17:56;100553.31;;;19.62;26.35
30724;BME280;17473;52.286;20.930;2023-04-30T12:20:27;100554.19;;;19.73;26.17
30724;BME280;17473;52.286;20.930;2023-04-30T12:22:55;100555.97;;;19.65;26.45
30724;BME280;17473;52.286;20.930;2023-04-30T12:25:23;100555.09;;;19.61;26.79
30724;BME280;17473;52.286;20.930;2023-04-30T12:27:52;100556.84;;;19.82;27.42
30724;BME280;17473;52.286;20.930;2023-04-30T12:30:21;100551.50;;;19.98;26.04
30724;BME280;17473;52.286;20.930;2023-04-30T12:32:52;100557.75;;;19.94;26.97
30724;BME280;17473;52.286;20.930;2023-04-30T12:35:22;100544.38;;;19.94;27.31
30724;BME280;17473;52.286;20.930;2023-04-30T12:38:04;100544.34;;;20.08;26.88
30724;BME280;17473;52.286;20.930;2023-04-30T12:40:32;100558.66;;;19.96;26.48
30724;BME280;17473;52.286;20.930;2023-04-30T12:43:05;100556.84;;;19.68;26.69
30724;BME280;17473;52.286;20.930;2023-04-30T12:45:50;100541.72;;;19.47;27.38
30724;BME280;17473;52.286;20.930;2023-04-30T12:48:23;100547.94;;;19.91;26.94
30724;BME280;17473;52.286;20.930;2023-04-30T12:50:59;100543.47;;;19.81;26.57
30724;BME280;17473;52.286;20.930;2023-04-30T12:53:30;100546.16;;;19.64;26.13
30724;BME280;17473;52.286;20.930;2023-04-30T12:56:14;100544.38;;;19.55;25.90
30724;BME280;17473;52.286;20.930;2023-04-30T12:58:44;100549.72;;;19.61;26.22
30724;BME280;17473;52.286;20.930;2023-04-30T13:01:20;100547.97;;;19.40;27.27
30724;BME280;17473;52.286;20.930;2023-04-30T13:03:49;100535.47;;;19.19;27.39